createdAt,value
2023-03-27T00:00:29.666Z,94.86
2023-03-27T00:02:59.644Z,94.60
2023-03-27T00:05:28.170Z,95.00
2023-03-27T00:07:56.340Z,95.15
2023-03-27T00:10:24.936Z,95.43
2023-03-27T00:12:53.304Z,95.31
2023-03-27T00:15:22.154Z,95.55
2023-03-27T00:17:53.005Z,95.54
2023-03-27T00:20:27.453Z,95.31
2023-03-27T00:22:58.494Z,95.41
2023-03-27T00:25:30.561Z,95.03
2023-03-27T00:28:10.718Z,95.59
2023-03-27T00:30:42.302Z,95.72
2023-03-27T00:33:18.122Z,95.87
2023-03-27T00:35:47.787Z,95.86
2023-03-27T00:38:18.559Z,95.83
2023-03-27T00:40:47.379Z,95.84
2023-03-27T00:43:35.399Z,95.78
2023-03-27T00:46:16.303Z,96.19
2023-03-27T00:48:48.158Z,95.92
2023-03-27T00:51:16.831Z,95.79
2023-03-27T00:53:44.990Z,95.81
2023-03-27T00:56:15.940Z,96.20
2023-03-27T00:58:45.126Z,96.14
2023-03-27T01:01:14.969Z,95.92
2023-03-27T01:03:47.194Z,96.17
2023-03-27T01:06:17.327Z,96.13
2023-03-27T01:08:47.049Z,96.14
2023-03-27T01:11:39.705Z,96.06
2023-03-27T01:14:09.910Z,96.11
2023-03-27T01:16:56.723Z,96.26
2023-03-27T01:20:04.625Z,96.57
2023-03-27T01:22:55.737Z,96.32
2023-03-27T01:25:36.300Z,96.57
2023-03-27T01:28:33.367Z,96.57
2023-03-27T01:31:28.760Z,96.61
2023-03-27T01:34:06.873Z,97.07
2023-03-27T01:36:52.005Z,96.81
2023-03-27T01:39:23.407Z,96.63
2023-03-27T01:42:04.683Z,96.49
2023-03-27T01:44:45.649Z,96.55
2023-03-27T01:47:14.040Z,96.97
2023-03-27T01:49:45.895Z,96.64
2023-03-27T01:52:20.975Z,96.97
2023-03-27T01:54:56.024Z,96.91
2023-03-27T01:57:48.906Z,96.99
2023-03-27T02:00:22.625Z,97.22
2023-03-27T02:03:00.449Z,96.94
2023-03-27T02:05:33.195Z,97.10
2023-03-27T02:08:15.824Z,96.95
2023-03-27T02:10:47.782Z,96.75
2023-03-27T02:13:19.917Z,96.85
2023-03-27T02:15:49.567Z,97.01
2023-03-27T02:18:23.804Z,96.97
2023-03-27T02:20:54.419Z,96.95
2023-03-27T02:23:23.613Z,96.95
2023-03-27T02:25:52.396Z,97.13
2023-03-27T02:28:32.448Z,97.13
2023-03-27T02:31:33.681Z,97.28
2023-03-27T02:34:32.298Z,97.20
2023-03-27T02:37:22.888Z,97.50
2023-03-27T02:40:45.948Z,97.22
2023-03-27T02:44:03.697Z,97.41
2023-03-27T02:46:52.442Z,97.49
2023-03-27T02:49:24.406Z,98.05
2023-03-27T02:51:58.013Z,98.06
2023-03-27T02:54:28.592Z,98.03
2023-03-27T02:56:59.229Z,97.82
2023-03-27T02:59:42.673Z,98.28
2023-03-27T03:02:21.182Z,98.21
2023-03-27T03:05:07.432Z,98.12
2023-03-27T03:07:40.513Z,98.32
2023-03-27T03:10:11.855Z,98.06
2023-03-27T03:12:40.557Z,98.05
2023-03-27T03:15:10.825Z,98.28
2023-03-27T03:17:39.187Z,98.17
2023-03-27T03:20:13.682Z,98.72
2023-03-27T03:22:42.664Z,98.54
2023-03-27T03:25:11.253Z,98.61
2023-03-27T03:27:41.981Z,98.84
2023-03-27T03:30:16.591Z,98.90
2023-03-27T03:32:55.635Z,98.91
2023-03-27T03:35:24.967Z,98.94
2023-03-27T03:37:54.817Z,98.79
2023-03-27T03:40:23.296Z,98.56
2023-03-27T03:42:53.055Z,98.58
2023-03-27T03:45:25.008Z,98.60
2023-03-27T03:47:53.420Z,98.80
2023-03-27T03:50:21.662Z,98.56
2023-03-27T03:52:50.250Z,98.54
2023-03-27T03:55:19.651Z,98.82
2023-03-27T03:57:50.389Z,99.24
2023-03-27T04:00:27.058Z,99.16
2023-03-27T04:02:57.834Z,98.82
2023-03-27T04:05:26.383Z,99.27
2023-03-27T04:08:01.716Z,98.83
2023-03-27T04:10:52.501Z,98.93
2023-03-27T04:13:39.433Z,99.01
2023-03-27T04:16:17.660Z,99.17
2023-03-27T04:18:54.776Z,99.22
2023-03-27T04:21:27.712Z,99.14
2023-03-27T04:24:02.922Z,99.74
2023-03-27T04:26:44.762Z,99.66
2023-03-27T04:29:32.106Z,99.87
2023-03-27T04:32:00.455Z,99.95
2023-03-27T04:34:51.784Z,99.94
2023-03-27T04:37:30.653Z,99.96
2023-03-27T04:40:19.048Z,100.00
2023-03-27T04:42:50.565Z,100.00
2023-03-27T04:45:23.689Z,100.00
2023-03-27T04:47:56.628Z,100.00
2023-03-27T04:50:26.101Z,100.00
2023-03-27T04:53:00.195Z,100.00
2023-03-27T04:55:39.693Z,100.00
2023-03-27T04:58:09.959Z,100.00
2023-03-27T05:00:43.349Z,100.00
2023-03-27T05:03:13.052Z,100.00
2023-03-27T05:05:54.253Z,100.00
2023-03-27T05:08:23.033Z,100.00
2023-03-27T05:10:51.213Z,100.00
2023-03-27T05:13:22.959Z,100.00
2023-03-27T05:15:54.005Z,99.97
2023-03-27T05:18:23.100Z,99.78
2023-03-27T05:21:00.592Z,99.47
2023-03-27T05:23:28.978Z,99.11
2023-03-27T05:26:00.035Z,98.62
2023-03-27T05:28:38.221Z,98.26
2023-03-27T05:31:06.830Z,97.39
2023-03-27T05:33:45.937Z,96.61
2023-03-27T05:36:15.650Z,95.37
2023-03-27T05:38:44.605Z,94.56
2023-03-27T05:41:18.455Z,94.02
2023-03-27T05:43:51.227Z,92.98
2023-03-27T05:46:21.267Z,92.04
2023-03-27T05:49:05.601Z,91.23
2023-03-27T05:51:35.636Z,91.12
2023-03-27T05:54:04.407Z,90.55
2023-03-27T05:56:37.969Z,89.72
2023-03-27T05:59:07.826Z,88.72
2023-03-27T06:01:37.541Z,88.17
2023-03-27T06:04:09.554Z,87.58
2023-03-27T06:07:15.149Z,86.17
2023-03-27T06:09:48.042Z,85.26
2023-03-27T06:12:41.997Z,84.33
2023-03-27T06:15:19.098Z,83.99
2023-03-27T06:17:55.305Z,83.71
2023-03-27T06:20:36.763Z,83.94
2023-03-27T06:23:08.504Z,83.12
2023-03-27T06:25:39.816Z,82.00
2023-03-27T06:28:10.387Z,81.41
2023-03-27T06:30:43.884Z,80.37
2023-03-27T06:33:49.139Z,79.65
2023-03-27T06:36:35.065Z,79.56
2023-03-27T06:39:08.414Z,78.09
2023-03-27T06:41:38.330Z,77.80
2023-03-27T06:44:39.374Z,76.90
2023-03-27T06:47:18.751Z,76.21
2023-03-27T06:50:09.354Z,75.49
2023-03-27T06:52:39.760Z,73.72
2023-03-27T06:55:37.513Z,73.33
2023-03-27T06:58:09.581Z,72.81
2023-03-27T07:00:39.384Z,72.04
2023-03-27T07:03:20.920Z,71.80
2023-03-27T07:06:32.361Z,71.06
2023-03-27T07:09:08.334Z,70.12
2023-03-27T07:11:37.719Z,69.97
2023-03-27T07:14:12.651Z,70.02
2023-03-27T07:16:41.154Z,68.63
2023-03-27T07:19:10.121Z,68.61
2023-03-27T07:21:42.293Z,68.34
2023-03-27T07:24:12.516Z,67.56
2023-03-27T07:26:41.920Z,67.06
2023-03-27T07:29:33.240Z,68.35
2023-03-27T07:32:08.809Z,69.17
2023-03-27T07:34:45.659Z,69.45
2023-03-27T07:37:16.395Z,68.29
2023-03-27T07:40:11.614Z,66.58
2023-03-27T07:42:45.530Z,65.87
2023-03-27T07:45:23.865Z,66.31
2023-03-27T07:47:53.448Z,65.15
2023-03-27T07:50:24.377Z,64.51
2023-03-27T07:52:53.572Z,63.44
2023-03-27T07:55:23.394Z,63.36
2023-03-27T07:58:09.083Z,62.73
2023-03-27T08:00:39.908Z,61.95
2023-03-27T08:03:13.097Z,61.84
2023-03-27T08:05:58.411Z,61.81
2023-03-27T08:08:29.315Z,60.78
2023-03-27T08:10:59.762Z,59.90
2023-03-27T08:13:33.445Z,59.47
2023-03-27T08:16:15.602Z,59.00
2023-03-27T08:18:46.450Z,56.82
2023-03-27T08:21:15.893Z,57.12
2023-03-27T08:23:46.316Z,57.71
2023-03-27T08:26:50.739Z,57.17
2023-03-27T08:29:24.546Z,56.85
2023-03-27T08:31:56.650Z,56.61
2023-03-27T08:34:28.269Z,55.43
2023-03-27T08:36:58.389Z,55.30
2023-03-27T08:39:34.979Z,54.85
2023-03-27T08:42:08.901Z,55.03
2023-03-27T08:44:40.217Z,53.91
2023-03-27T08:47:23.273Z,53.71
2023-03-27T08:50:05.159Z,52.67
2023-03-27T08:52:46.323Z,50.78
2023-03-27T08:55:26.412Z,50.37
2023-03-27T08:58:06.113Z,49.31
2023-03-27T09:00:39.823Z,49.13
2023-03-27T09:03:26.198Z,48.22
2023-03-27T09:06:02.707Z,48.19
2023-03-27T09:08:53.439Z,47.42
2023-03-27T09:11:55.280Z,47.07
2023-03-27T09:14:37.076Z,47.71
2023-03-27T09:17:39.349Z,47.94
2023-03-27T09:20:43.133Z,46.36
2023-03-27T09:23:39.535Z,45.95
2023-03-27T09:26:30.517Z,45.35
2023-03-27T09:29:23.637Z,44.63
2023-03-27T09:31:57.961Z,44.61
2023-03-27T09:34:32.896Z,43.26
2023-03-27T09:37:17.544Z,42.79
2023-03-27T09:39:51.275Z,42.52
2023-03-27T09:42:32.256Z,41.87
2023-03-27T09:45:08.109Z,41.84
2023-03-27T09:48:02.545Z,42.55
2023-03-27T09:50:47.351Z,42.59
2023-03-27T09:53:33.338Z,43.40
2023-03-27T09:56:26.216Z,43.53
2023-03-27T09:58:57.169Z,42.18
2023-03-27T10:01:35.123Z,42.41
2023-03-27T10:04:17.997Z,42.31
2023-03-27T10:07:03.074Z,41.62
2023-03-27T10:09:43.377Z,41.04
2023-03-27T10:12:18.376Z,41.09
2023-03-27T10:14:52.238Z,39.57
2023-03-27T10:17:38.699Z,39.22
2023-03-27T10:21:09.312Z,39.35
2023-03-27T10:23:44.877Z,38.15
2023-03-27T10:26:32.234Z,37.13
2023-03-27T10:29:08.016Z,37.13
2023-03-27T10:31:42.636Z,37.43
2023-03-27T10:34:55.134Z,37.36
2023-03-27T10:37:50.108Z,37.33
2023-03-27T10:40:35.806Z,36.77
2023-03-27T10:43:12.882Z,36.54
2023-03-27T10:45:48.911Z,36.41
2023-03-27T10:48:52.595Z,36.62
2023-03-27T10:51:50.886Z,36.11
2023-03-27T10:55:08.886Z,35.82
2023-03-27T11:01:26.686Z,37.52
2023-03-27T11:04:11.395Z,38.17
2023-03-27T11:06:49.120Z,38.69
2023-03-27T11:09:28.909Z,38.11
2023-03-27T11:12:21.345Z,38.23
2023-03-27T11:15:05.469Z,37.88
2023-03-27T11:17:45.188Z,38.47
2023-03-27T11:20:47.121Z,39.30
2023-03-27T11:23:58.972Z,37.97
2023-03-27T11:26:40.153Z,38.01
2023-03-27T11:29:23.230Z,38.29
2023-03-27T11:31:57.482Z,37.94
2023-03-27T11:34:48.591Z,37.35
2023-03-27T11:37:40.806Z,38.16
2023-03-27T11:40:24.865Z,38.20
2023-03-27T11:42:59.092Z,37.78
2023-03-27T11:45:32.994Z,36.88
2023-03-27T11:48:43.577Z,37.24
2023-03-27T11:51:18.085Z,37.29
2023-03-27T11:53:57.423Z,37.93
2023-03-27T11:56:54.956Z,38.48
2023-03-27T12:00:28.698Z,39.08
2023-03-27T12:03:00.511Z,39.21
2023-03-27T12:05:54.718Z,39.75
2023-03-27T12:09:05.001Z,40.47
2023-03-27T12:11:51.729Z,39.64
2023-03-27T12:14:43.474Z,39.67
2023-03-27T12:17:21.353Z,39.41
2023-03-27T12:21:05.012Z,39.28
2023-03-27T12:23:46.910Z,39.74
2023-03-27T12:27:35.439Z,40.39
2023-03-27T12:30:58.378Z,40.65
2023-03-27T12:33:27.193Z,41.21
2023-03-27T12:36:04.130Z,41.32
2023-03-27T12:38:40.744Z,41.51
2023-03-27T12:41:14.445Z,41.72
2023-03-27T12:44:04.940Z,41.11
2023-03-27T12:46:43.073Z,41.43
2023-03-27T12:49:13.917Z,41.57
2023-03-27T12:51:54.208Z,42.12
2023-03-27T12:55:03.971Z,41.84
2023-03-27T12:57:55.683Z,41.48
2023-03-27T13:01:00.737Z,41.40
2023-03-27T13:03:59.699Z,40.54
2023-03-27T13:06:40.851Z,38.98
2023-03-27T13:09:51.620Z,37.40
2023-03-27T13:12:30.954Z,35.12
2023-03-27T13:15:57.225Z,35.77
2023-03-27T13:18:58.356Z,35.93
2023-03-27T13:21:53.203Z,36.01
2023-03-27T13:24:34.512Z,37.00
2023-03-27T13:27:30.518Z,37.36
2023-03-27T13:30:02.965Z,38.15
2023-03-27T13:33:33.354Z,37.90
2023-03-27T13:36:26.924Z,38.27
2023-03-27T13:39:07.529Z,38.13
2023-03-27T13:41:42.520Z,38.52
2023-03-27T13:44:45.089Z,38.53
2023-03-27T13:47:34.622Z,38.49
2023-03-27T13:50:35.198Z,38.71
2023-03-27T13:53:41.774Z,39.46
2023-03-27T13:56:28.283Z,40.05
2023-03-27T13:59:38.850Z,40.24
2023-03-27T14:02:29.561Z,40.18
2023-03-27T14:05:10.582Z,39.03
2023-03-27T14:07:48.360Z,38.22
2023-03-27T14:10:36.378Z,37.93
2023-03-27T14:13:51.153Z,37.14
2023-03-27T14:17:03.028Z,37.63
2023-03-27T14:19:50.148Z,38.19
2023-03-27T14:22:24.566Z,37.82
2023-03-27T14:25:04.426Z,36.44
2023-03-27T14:27:45.803Z,35.53
2023-03-27T14:30:17.830Z,35.52
2023-03-27T14:32:50.572Z,34.89
2023-03-27T14:35:39.991Z,34.78
2023-03-27T14:38:24.961Z,34.70
2023-03-27T14:40:57.466Z,35.67
2023-03-27T14:43:44.382Z,35.86
2023-03-27T14:46:14.740Z,35.52
2023-03-27T14:48:46.485Z,35.55
2023-03-27T14:51:19.965Z,36.10
2023-03-27T14:53:51.040Z,36.46
2023-03-27T14:56:47.932Z,37.14
2023-03-27T14:59:49.362Z,37.89
2023-03-27T15:02:35.171Z,38.56
2023-03-27T15:05:15.011Z,39.01
2023-03-27T15:07:49.231Z,39.45
2023-03-27T15:10:39.430Z,40.11
2023-03-27T15:13:26.683Z,40.50
2023-03-27T15:15:58.914Z,40.70
2023-03-27T15:18:33.477Z,41.19
2023-03-27T15:21:07.983Z,41.26
2023-03-27T15:23:42.580Z,41.78
2023-03-27T15:26:15.519Z,42.03
2023-03-27T15:28:51.556Z,42.40
2023-03-27T15:31:19.979Z,42.58
2023-03-27T15:34:03.616Z,42.86
2023-03-27T15:36:35.957Z,42.90
2023-03-27T15:39:06.728Z,43.15
2023-03-27T15:41:38.908Z,43.48
2023-03-27T15:44:22.059Z,44.01
2023-03-27T15:46:57.601Z,44.59
2023-03-27T15:49:32.929Z,45.14
2023-03-27T15:52:22.848Z,45.54
2023-03-27T15:54:55.722Z,45.92
2023-03-27T15:57:25.347Z,46.00
2023-03-27T15:59:54.298Z,46.21
2023-03-27T16:02:25.482Z,46.44
2023-03-27T16:04:58.874Z,46.72
2023-03-27T16:07:31.700Z,46.92
2023-03-27T16:10:06.770Z,47.04
2023-03-27T16:12:42.990Z,47.30
2023-03-27T16:15:45.680Z,47.34
2023-03-27T16:18:18.630Z,47.64
2023-03-27T16:20:49.129Z,47.81
2023-03-27T16:23:17.942Z,48.16
2023-03-27T16:26:10.012Z,48.46
2023-03-27T16:28:38.357Z,48.65
2023-03-27T16:31:15.244Z,48.90
2023-03-27T16:33:47.448Z,49.04
2023-03-27T16:36:18.831Z,49.32
2023-03-27T16:38:48.773Z,49.63
2023-03-27T16:41:17.875Z,49.85
2023-03-27T16:43:46.658Z,49.89
2023-03-27T16:46:22.072Z,49.94
2023-03-27T16:48:54.116Z,49.78
2023-03-27T16:51:24.862Z,49.81
2023-03-27T16:53:53.394Z,49.82
2023-03-27T16:56:22.960Z,49.90
2023-03-27T16:58:52.509Z,49.92
2023-03-27T17:01:24.804Z,49.78
2023-03-27T17:03:54.504Z,49.76
2023-03-27T17:06:23.061Z,49.95
2023-03-27T17:08:55.957Z,50.23
2023-03-27T17:11:24.949Z,50.34
2023-03-27T17:13:54.136Z,50.47
2023-03-27T17:16:22.442Z,50.62
2023-03-27T17:18:52.949Z,50.90
2023-03-27T17:21:22.554Z,50.77
2023-03-27T17:23:56.321Z,50.95
2023-03-27T17:26:27.387Z,50.86
2023-03-27T17:28:58.030Z,51.17
2023-03-27T17:31:30.236Z,51.38
2023-03-27T17:33:59.616Z,51.53
2023-03-27T17:36:38.757Z,51.57
2023-03-27T17:39:09.824Z,51.60
2023-03-27T17:41:38.265Z,51.66
2023-03-27T17:44:08.014Z,51.47
2023-03-27T17:46:38.039Z,51.33
2023-03-27T17:49:08.416Z,51.39
2023-03-27T17:51:37.818Z,51.14
2023-03-27T17:54:10.086Z,51.23
2023-03-27T17:56:38.909Z,51.17
2023-03-27T17:59:10.238Z,51.07
2023-03-27T18:01:40.696Z,51.19
2023-03-27T18:04:10.778Z,51.13
2023-03-27T18:06:38.955Z,51.46
2023-03-27T18:09:10.102Z,51.82
2023-03-27T18:11:39.397Z,52.70
2023-03-27T18:14:08.185Z,52.91
2023-03-27T18:16:38.436Z,52.78
2023-03-27T18:19:09.319Z,52.91
2023-03-27T18:21:39.167Z,52.85
2023-03-27T18:24:08.252Z,52.69
2023-03-27T18:26:36.937Z,52.95
2023-03-27T18:29:07.674Z,52.99
2023-03-27T18:31:36.710Z,53.00
2023-03-27T18:34:05.366Z,53.03
2023-03-27T18:36:35.369Z,53.06
2023-03-27T18:39:06.821Z,53.04
2023-03-27T18:41:36.426Z,52.91
2023-03-27T18:44:05.319Z,53.01
2023-03-27T18:46:36.878Z,53.22
2023-03-27T18:49:21.408Z,53.16
2023-03-27T18:51:54.532Z,52.99
2023-03-27T18:54:24.316Z,52.76
2023-03-27T18:56:54.746Z,52.89
2023-03-27T18:59:23.041Z,52.94
2023-03-27T19:01:52.587Z,52.68
2023-03-27T19:04:21.634Z,52.80
2023-03-27T19:06:49.939Z,52.65
2023-03-27T19:09:23.475Z,52.78
2023-03-27T19:12:03.578Z,52.84
2023-03-27T19:14:50.910Z,52.88
2023-03-27T19:17:41.000Z,52.86
2023-03-27T19:20:26.803Z,52.89
2023-03-27T19:23:18.831Z,52.97
2023-03-27T19:25:51.894Z,53.06
2023-03-27T19:28:21.716Z,53.02
2023-03-27T19:30:52.967Z,52.74
2023-03-27T19:33:23.298Z,52.98
2023-03-27T19:35:54.555Z,53.88
2023-03-27T19:38:27.505Z,54.79
2023-03-27T19:40:57.745Z,55.27
2023-03-27T19:43:28.985Z,55.45
2023-03-27T19:46:12.503Z,55.51
2023-03-27T19:48:47.752Z,55.70
2023-03-27T19:51:27.096Z,55.89
2023-03-27T19:54:01.408Z,56.02
2023-03-27T19:56:31.019Z,56.30
2023-03-27T19:59:00.011Z,56.27
2023-03-27T20:01:29.753Z,56.64
2023-03-27T20:03:59.284Z,57.03
2023-03-27T20:06:29.073Z,57.14
2023-03-27T20:09:02.906Z,57.34
2023-03-27T20:11:31.737Z,57.43
2023-03-27T20:13:59.911Z,57.77
2023-03-27T20:16:31.546Z,57.82
2023-03-27T20:19:06.610Z,58.16
2023-03-27T20:21:39.751Z,58.29
2023-03-27T20:24:12.489Z,58.51
2023-03-27T20:26:48.648Z,58.72
2023-03-27T20:29:27.197Z,58.99
2023-03-27T20:31:56.224Z,59.04
2023-03-27T20:34:24.640Z,59.21
2023-03-27T20:36:53.638Z,59.42
2023-03-27T20:39:34.301Z,59.68
2023-03-27T20:42:02.672Z,59.86
2023-03-27T20:44:38.175Z,59.91
2023-03-27T20:47:12.320Z,59.84
2023-03-27T20:49:45.780Z,59.87
2023-03-27T20:52:18.747Z,59.94
2023-03-27T20:54:48.630Z,59.93
2023-03-27T20:57:21.982Z,59.72
2023-03-27T20:59:51.664Z,59.55
2023-03-27T21:02:22.211Z,59.90
2023-03-27T21:04:50.853Z,59.77
2023-03-27T21:07:20.433Z,59.94
2023-03-27T21:09:56.722Z,61.29
2023-03-27T21:12:25.360Z,62.20
2023-03-27T21:14:53.890Z,63.03
2023-03-27T21:17:22.268Z,63.71
2023-03-27T21:19:51.213Z,63.94
2023-03-27T21:22:22.728Z,64.05
2023-03-27T21:24:51.418Z,64.02
2023-03-27T21:27:20.293Z,64.26
2023-03-27T21:29:55.312Z,64.14
2023-03-27T21:32:25.436Z,64.21
2023-03-27T21:34:53.627Z,64.44
2023-03-27T21:37:22.208Z,64.23
2023-03-27T21:39:51.927Z,64.49
2023-03-27T21:42:22.056Z,64.47
2023-03-27T21:44:55.624Z,64.72
2023-03-27T21:47:37.287Z,64.51
2023-03-27T21:50:17.690Z,64.25
2023-03-27T21:52:47.920Z,64.10
2023-03-27T21:55:17.776Z,64.14
2023-03-27T21:57:46.317Z,64.03
2023-03-27T22:00:21.755Z,63.97
2023-03-27T22:03:03.317Z,63.86
2023-03-27T22:05:38.342Z,63.79
2023-03-27T22:08:09.018Z,63.85
2023-03-27T22:10:43.539Z,63.90
2023-03-27T22:13:11.811Z,63.81
2023-03-27T22:15:44.439Z,63.94
2023-03-27T22:18:13.030Z,64.18
2023-03-27T22:20:43.299Z,63.91
2023-03-27T22:23:15.072Z,63.90
2023-03-27T22:25:53.109Z,63.60
2023-03-27T22:28:22.728Z,63.63
2023-03-27T22:30:51.082Z,63.54
2023-03-27T22:33:19.528Z,63.08
2023-03-27T22:35:53.175Z,63.46
2023-03-27T22:39:52.030Z,63.21
2023-03-27T22:42:22.555Z,63.25
2023-03-27T22:44:51.786Z,63.34
2023-03-27T22:47:20.139Z,63.18
2023-03-27T22:49:50.854Z,63.33
2023-03-27T22:52:20.074Z,63.53
2023-03-27T22:54:48.960Z,63.36
2023-03-27T22:57:19.546Z,63.13
2023-03-27T22:59:54.697Z,63.08
2023-03-27T23:02:25.733Z,63.09
2023-03-27T23:04:54.360Z,63.18
2023-03-27T23:07:22.942Z,63.21
2023-03-27T23:09:53.075Z,63.43
2023-03-27T23:12:21.547Z,63.40
2023-03-27T23:14:52.799Z,63.45
2023-03-27T23:17:21.521Z,63.68
2023-03-27T23:19:50.163Z,63.48
2023-03-27T23:22:18.951Z,63.86
2023-03-27T23:24:49.623Z,63.75
2023-03-27T23:27:20.653Z,63.80
2023-03-27T23:29:49.108Z,63.54
2023-03-27T23:32:18.101Z,63.36
2023-03-27T23:34:47.408Z,63.26
2023-03-27T23:37:16.406Z,63.17
2023-03-27T23:39:46.922Z,63.17
2023-03-27T23:42:16.018Z,63.42
2023-03-27T23:44:45.524Z,63.49
2023-03-27T23:47:16.260Z,63.70
2023-03-27T23:49:44.535Z,63.53
2023-03-27T23:52:20.822Z,63.72
2023-03-27T23:54:53.502Z,64.06
2023-03-27T23:57:23.750Z,64.19
